sensor_id;sensor_type;location;lat;lon;timestamp;P1;durP1;ratioP1;P2;durP2;ratioP2
68803;SDS011;55787;52.678;13.314;2022-08-18T00:01:45;15.73;;;10.60;;
68803;SDS011;55787;52.678;13.314;2022-08-18T00:04:16;16.30;;;10.35;;
68803;SDS011;55787;52.678;13.314;2022-08-18T00:07:06;16.17;;;10.82;;
68803;SDS011;55787;52.678;13.314;2022-08-18T00:09:35;15.68;;;10.73;;
68803;SDS011;55787;52.678;13.314;2022-08-18T00:12:05;15.93;;;10.82;;
68803;SDS011;55787;52.678;13.314;2022-08-18T00:14:35;17.50;;;11.10;;
68803;SDS011;55787;52.678;13.314;2022-08-18T00:17:01;15.57;;;10.27;;
68803;SDS011;55787;52.678;13.314;2022-08-18T00:19:28;15.30;;;10.35;;
68803;SDS011;55787;52.678;13.314;2022-08-18T00:22:14;15.38;;;10.43;;
68803;SDS011;55787;52.678;13.314;2022-08-18T00:24:43;17.13;;;10.50;;
68803;SDS011;55787;52.678;13.314;2022-08-18T00:27:13;16.85;;;10.73;;
68803;SDS011;55787;52.678;13.314;2022-08-18T00:29:39;15.10;;;10.80;;
68803;SDS011;55787;52.678;13.314;2022-08-18T00:32:16;17.45;;;11.15;;
68803;SDS011;55787;52.678;13.314;2022-08-18T00:34:44;17.45;;;11.20;;
68803;SDS011;55787;52.678;13.314;2022-08-18T00:37:11;17.23;;;10.90;;
68803;SDS011;55787;52.678;13.314;2022-08-18T00:39:37;15.68;;;10.15;;
68803;SDS011;55787;52.678;13.314;2022-08-18T00:42:16;16.13;;;10.63;;
68803;SDS011;55787;52.678;13.314;2022-08-18T00:44:56;15.63;;;10.63;;
68803;SDS011;55787;52.678;13.314;2022-08-18T00:47:24;14.80;;;10.57;;
68803;SDS011;55787;52.678;13.314;2022-08-18T00:50:07;18.42;;;10.75;;
68803;SDS011;55787;52.678;13.314;2022-08-18T00:52:41;17.20;;;9.70;;
68803;SDS011;55787;52.678;13.314;2022-08-18T00:55:09;17.15;;;9.38;;
68803;SDS011;55787;52.678;13.314;2022-08-18T00:57:36;14.70;;;9.70;;
68803;SDS011;55787;52.678;13.314;2022-08-18T01:00:04;15.68;;;9.52;;
68803;SDS011;55787;52.678;13.314;2022-08-18T01:02:38;16.15;;;10.40;;
68803;SDS011;55787;52.678;13.314;2022-08-18T01:05:10;16.88;;;9.90;;
68803;SDS011;55787;52.678;13.314;2022-08-18T01:07:42;16.67;;;10.77;;
68803;SDS011;55787;52.678;13.314;2022-08-18T01:10:12;15.70;;;10.02;;
68803;SDS011;55787;52.678;13.314;2022-08-18T01:12:42;15.65;;;9.93;;
68803;SDS011;55787;52.678;13.314;2022-08-18T01:15:12;14.63;;;9.98;;
68803;SDS011;55787;52.678;13.314;2022-08-18T01:17:59;17.42;;;10.50;;
68803;SDS011;55787;52.678;13.314;2022-08-18T01:23:58;16.88;;;10.32;;
68803;SDS011;55787;52.678;13.314;2022-08-18T01:26:29;15.63;;;10.50;;
68803;SDS011;55787;52.678;13.314;2022-08-18T01:29:02;16.10;;;10.40;;
68803;SDS011;55787;52.678;13.314;2022-08-18T01:31:39;15.13;;;10.45;;
68803;SDS011;55787;52.678;13.314;2022-08-18T01:34:20;15.02;;;10.10;;
68803;SDS011;55787;52.678;13.314;2022-08-18T01:36:49;16.90;;;9.77;;
68803;SDS011;55787;52.678;13.314;2022-08-18T01:39:20;15.35;;;10.40;;
68803;SDS011;55787;52.678;13.314;2022-08-18T01:42:07;17.25;;;10.70;;
68803;SDS011;55787;52.678;13.314;2022-08-18T01:44:34;17.23;;;10.77;;
68803;SDS011;55787;52.678;13.314;2022-08-18T01:47:00;16.17;;;10.70;;
68803;SDS011;55787;52.678;13.314;2022-08-18T01:49:27;16.55;;;10.75;;
68803;SDS011;55787;52.678;13.314;2022-08-18T01:51:54;16.05;;;10.88;;
68803;SDS011;55787;52.678;13.314;2022-08-18T01:54:23;17.70;;;10.57;;
68803;SDS011;55787;52.678;13.314;2022-08-18T01:56:55;16.73;;;11.02;;
68803;SDS011;55787;52.678;13.314;2022-08-18T01:59:21;15.63;;;11.45;;
68803;SDS011;55787;52.678;13.314;2022-08-18T02:01:47;17.02;;;11.30;;
68803;SDS011;55787;52.678;13.314;2022-08-18T02:04:19;17.33;;;11.70;;
68803;SDS011;55787;52.678;13.314;2022-08-18T02:07:02;17.13;;;11.43;;
68803;SDS011;55787;52.678;13.314;2022-08-18T02:09:31;20.55;;;12.25;;
68803;SDS011;55787;52.678;13.314;2022-08-18T02:11:59;17.45;;;11.30;;
68803;SDS011;55787;52.678;13.314;2022-08-18T02:14:25;16.67;;;11.57;;
68803;SDS011;55787;52.678;13.314;2022-08-18T02:16:56;18.70;;;11.57;;
68803;SDS011;55787;52.678;13.314;2022-08-18T02:19:31;17.38;;;11.90;;
68803;SDS011;55787;52.678;13.314;2022-08-18T02:21:59;17.30;;;12.02;;
68803;SDS011;55787;52.678;13.314;2022-08-18T02:24:26;18.52;;;12.02;;
68803;SDS011;55787;52.678;13.314;2022-08-18T02:26:53;17.30;;;11.95;;
68803;SDS011;55787;52.678;13.314;2022-08-18T02:29:19;18.23;;;12.60;;
68803;SDS011;55787;52.678;13.314;2022-08-18T02:31:45;21.73;;;12.63;;
68803;SDS011;55787;52.678;13.314;2022-08-18T02:34:12;17.75;;;12.07;;
68803;SDS011;55787;52.678;13.314;2022-08-18T02:36:40;21.40;;;12.32;;
68803;SDS011;55787;52.678;13.314;2022-08-18T02:39:07;18.92;;;12.02;;
68803;SDS011;55787;52.678;13.314;2022-08-18T02:41:33;19.10;;;12.20;;
68803;SDS011;55787;52.678;13.314;2022-08-18T02:44:01;18.48;;;12.27;;
68803;SDS011;55787;52.678;13.314;2022-08-18T02:46:29;17.23;;;11.82;;
68803;SDS011;55787;52.678;13.314;2022-08-18T02:48:57;18.13;;;11.18;;
68803;SDS011;55787;52.678;13.314;2022-08-18T02:51:24;18.83;;;12.18;;
68803;SDS011;55787;52.678;13.314;2022-08-18T02:53:51;19.48;;;11.65;;
68803;SDS011;55787;52.678;13.314;2022-08-18T02:56:22;19.75;;;12.13;;
68803;SDS011;55787;52.678;13.314;2022-08-18T02:59:06;17.50;;;11.73;;
68803;SDS011;55787;52.678;13.314;2022-08-18T03:01:36;19.63;;;12.52;;
68803;SDS011;55787;52.678;13.314;2022-08-18T03:04:05;18.95;;;12.85;;
68803;SDS011;55787;52.678;13.314;2022-08-18T03:06:37;18.52;;;12.27;;
68803;SDS011;55787;52.678;13.314;2022-08-18T03:09:05;18.80;;;12.85;;
68803;SDS011;55787;52.678;13.314;2022-08-18T03:11:33;18.83;;;12.10;;
68803;SDS011;55787;52.678;13.314;2022-08-18T03:13:59;18.23;;;12.65;;
68803;SDS011;55787;52.678;13.314;2022-08-18T03:16:26;18.40;;;12.35;;
68803;SDS011;55787;52.678;13.314;2022-08-18T03:18:58;18.38;;;12.45;;
68803;SDS011;55787;52.678;13.314;2022-08-18T03:21:27;19.50;;;12.68;;
68803;SDS011;55787;52.678;13.314;2022-08-18T03:23:55;21.25;;;12.82;;
68803;SDS011;55787;52.678;13.314;2022-08-18T03:26:26;20.75;;;13.18;;
68803;SDS011;55787;52.678;13.314;2022-08-18T03:28:55;19.90;;;12.63;;
68803;SDS011;55787;52.678;13.314;2022-08-18T03:31:23;17.23;;;11.65;;
68803;SDS011;55787;52.678;13.314;2022-08-18T03:33:53;19.08;;;12.65;;
68803;SDS011;55787;52.678;13.314;2022-08-18T03:36:25;18.92;;;12.30;;
68803;SDS011;55787;52.678;13.314;2022-08-18T03:38:53;20.17;;;13.27;;
68803;SDS011;55787;52.678;13.314;2022-08-18T03:41:21;19.60;;;12.60;;
68803;SDS011;55787;52.678;13.314;2022-08-18T03:44:10;19.35;;;13.10;;
68803;SDS011;55787;52.678;13.314;2022-08-18T03:46:38;18.08;;;12.75;;
68803;SDS011;55787;52.678;13.314;2022-08-18T03:49:06;20.65;;;13.50;;
68803;SDS011;55787;52.678;13.314;2022-08-18T03:51:32;19.48;;;13.00;;
68803;SDS011;55787;52.678;13.314;2022-08-18T03:54:00;21.13;;;13.50;;
68803;SDS011;55787;52.678;13.314;2022-08-18T03:56:29;19.77;;;13.80;;
68803;SDS011;55787;52.678;13.314;2022-08-18T03:59:03;20.08;;;13.38;;
68803;SDS011;55787;52.678;13.314;2022-08-18T04:01:37;20.75;;;13.32;;
68803;SDS011;55787;52.678;13.314;2022-08-18T04:04:06;20.42;;;13.40;;
68803;SDS011;55787;52.678;13.314;2022-08-18T04:06:37;21.30;;;13.55;;
68803;SDS011;55787;52.678;13.314;2022-08-18T04:09:08;19.42;;;12.50;;
68803;SDS011;55787;52.678;13.314;2022-08-18T04:11:37;19.17;;;13.00;;
68803;SDS011;55787;52.678;13.314;2022-08-18T04:14:08;20.30;;;13.20;;
68803;SDS011;55787;52.678;13.314;2022-08-18T04:16:37;19.65;;;13.32;;
68803;SDS011;55787;52.678;13.314;2022-08-18T04:19:05;19.85;;;13.52;;
68803;SDS011;55787;52.678;13.314;2022-08-18T04:21:35;19.58;;;13.70;;
68803;SDS011;55787;52.678;13.314;2022-08-18T04:24:05;22.42;;;13.88;;
68803;SDS011;55787;52.678;13.314;2022-08-18T04:26:34;20.00;;;13.07;;
68803;SDS011;55787;52.678;13.314;2022-08-18T04:29:10;22.60;;;13.38;;
68803;SDS011;55787;52.678;13.314;2022-08-18T04:31:41;20.65;;;14.07;;
68803;SDS011;55787;52.678;13.314;2022-08-18T04:34:08;21.05;;;13.70;;
68803;SDS011;55787;52.678;13.314;2022-08-18T04:36:35;20.95;;;13.10;;
68803;SDS011;55787;52.678;13.314;2022-08-18T04:39:03;19.52;;;13.25;;
68803;SDS011;55787;52.678;13.314;2022-08-18T04:41:31;19.17;;;12.38;;
68803;SDS011;55787;52.678;13.314;2022-08-18T04:43:59;18.10;;;12.52;;
68803;SDS011;55787;52.678;13.314;2022-08-18T04:46:28;19.95;;;12.70;;
68803;SDS011;55787;52.678;13.314;2022-08-18T04:48:59;18.88;;;12.52;;
68803;SDS011;55787;52.678;13.314;2022-08-18T04:51:27;18.52;;;12.45;;
68803;SDS011;55787;52.678;13.314;2022-08-18T04:54:14;20.65;;;13.05;;
68803;SDS011;55787;52.678;13.314;2022-08-18T04:56:41;19.60;;;12.40;;
68803;SDS011;55787;52.678;13.314;2022-08-18T04:59:09;19.92;;;12.30;;
68803;SDS011;55787;52.678;13.314;2022-08-18T05:01:46;18.98;;;12.25;;
68803;SDS011;55787;52.678;13.314;2022-08-18T05:04:14;20.52;;;12.50;;
68803;SDS011;55787;52.678;13.314;2022-08-18T05:06:42;17.92;;;11.93;;
68803;SDS011;55787;52.678;13.314;2022-08-18T05:09:11;19.92;;;12.57;;
68803;SDS011;55787;52.678;13.314;2022-08-18T05:11:47;18.13;;;12.00;;
68803;SDS011;55787;52.678;13.314;2022-08-18T05:14:14;17.38;;;12.13;;
68803;SDS011;55787;52.678;13.314;2022-08-18T05:16:40;18.83;;;12.40;;
68803;SDS011;55787;52.678;13.314;2022-08-18T05:19:14;18.73;;;12.40;;
68803;SDS011;55787;52.678;13.314;2022-08-18T05:21:49;18.13;;;11.60;;
68803;SDS011;55787;52.678;13.314;2022-08-18T05:24:16;21.95;;;12.63;;
68803;SDS011;55787;52.678;13.314;2022-08-18T05:26:44;17.23;;;12.43;;
68803;SDS011;55787;52.678;13.314;2022-08-18T05:29:11;18.75;;;12.98;;
68803;SDS011;55787;52.678;13.314;2022-08-18T05:31:44;21.48;;;12.52;;
68803;SDS011;55787;52.678;13.314;2022-08-18T05:34:11;17.38;;;12.52;;
68803;SDS011;55787;52.678;13.314;2022-08-18T05:41:43;20.48;;;12.07;;
68803;SDS011;55787;52.678;13.314;2022-08-18T05:44:14;17.60;;;12.07;;
68803;SDS011;55787;52.678;13.314;2022-08-18T05:46:58;18.02;;;12.52;;
68803;SDS011;55787;52.678;13.314;2022-08-18T05:49:47;18.50;;;12.55;;
68803;SDS011;55787;52.678;13.314;2022-08-18T05:55:03;17.88;;;12.38;;
68803;SDS011;55787;52.678;13.314;2022-08-18T05:57:51;18.08;;;12.32;;
68803;SDS011;55787;52.678;13.314;2022-08-18T06:00:21;16.63;;;11.32;;
68803;SDS011;55787;52.678;13.314;2022-08-18T06:02:56;18.08;;;11.40;;
68803;SDS011;55787;52.678;13.314;2022-08-18T06:05:40;17.87;;;12.27;;
68803;SDS011;55787;52.678;13.314;2022-08-18T06:08:14;16.98;;;11.88;;
68803;SDS011;55787;52.678;13.314;2022-08-18T06:10:45;17.77;;;12.15;;
68803;SDS011;55787;52.678;13.314;2022-08-18T06:13:13;18.88;;;12.43;;
68803;SDS011;55787;52.678;13.314;2022-08-18T06:15:51;16.55;;;11.50;;
68803;SDS011;55787;52.678;13.314;2022-08-18T06:24:05;18.30;;;12.95;;
68803;SDS011;55787;52.678;13.314;2022-08-18T06:26:49;19.52;;;13.20;;
68803;SDS011;55787;52.678;13.314;2022-08-18T06:35:34;16.85;;;12.77;;
68803;SDS011;55787;52.678;13.314;2022-08-18T06:40:47;18.05;;;12.35;;
68803;SDS011;55787;52.678;13.314;2022-08-18T06:43:14;16.13;;;12.55;;
68803;SDS011;55787;52.678;13.314;2022-08-18T06:45:43;18.85;;;12.65;;
68803;SDS011;55787;52.678;13.314;2022-08-18T06:48:24;17.77;;;13.45;;
68803;SDS011;55787;52.678;13.314;2022-08-18T06:50:57;17.70;;;13.13;;
68803;SDS011;55787;52.678;13.314;2022-08-18T06:56:24;18.83;;;12.80;;
68803;SDS011;55787;52.678;13.314;2022-08-18T07:01:41;15.95;;;11.98;;
68803;SDS011;55787;52.678;13.314;2022-08-18T07:04:08;16.85;;;12.23;;
68803;SDS011;55787;52.678;13.314;2022-08-18T07:06:35;17.30;;;12.80;;
68803;SDS011;55787;52.678;13.314;2022-08-18T07:09:16;20.25;;;12.75;;
68803;SDS011;55787;52.678;13.314;2022-08-18T07:12:03;18.02;;;11.98;;
68803;SDS011;55787;52.678;13.314;2022-08-18T07:14:43;18.48;;;12.43;;
68803;SDS011;55787;52.678;13.314;2022-08-18T07:17:19;17.38;;;11.82;;
68803;SDS011;55787;52.678;13.314;2022-08-18T07:20:16;16.38;;;11.55;;
68803;SDS011;55787;52.678;13.314;2022-08-18T07:22:58;19.77;;;11.82;;
68803;SDS011;55787;52.678;13.314;2022-08-18T07:25:27;16.65;;;11.93;;
68803;SDS011;55787;52.678;13.314;2022-08-18T07:28:03;22.20;;;11.80;;
68803;SDS011;55787;52.678;13.314;2022-08-18T07:30:34;15.43;;;11.75;;
68803;SDS011;55787;52.678;13.314;2022-08-18T07:33:21;19.83;;;11.55;;
68803;SDS011;55787;52.678;13.314;2022-08-18T07:35:52;19.52;;;12.07;;
68803;SDS011;55787;52.678;13.314;2022-08-18T07:41:18;17.15;;;11.70;;
68803;SDS011;55787;52.678;13.314;2022-08-18T07:44:00;18.67;;;12.57;;
68803;SDS011;55787;52.678;13.314;2022-08-18T07:49:22;16.63;;;12.55;;
68803;SDS011;55787;52.678;13.314;2022-08-18T07:51:54;20.45;;;11.90;;
68803;SDS011;55787;52.678;13.314;2022-08-18T07:57:18;17.08;;;12.05;;
68803;SDS011;55787;52.678;13.314;2022-08-18T08:02:18;17.05;;;11.57;;
68803;SDS011;55787;52.678;13.314;2022-08-18T08:07:50;18.70;;;11.52;;
68803;SDS011;55787;52.678;13.314;2022-08-18T08:13:41;19.40;;;11.85;;
68803;SDS011;55787;52.678;13.314;2022-08-18T08:16:37;17.67;;;11.95;;
68803;SDS011;55787;52.678;13.314;2022-08-18T08:21:57;16.88;;;11.85;;
68803;SDS011;55787;52.678;13.314;2022-08-18T08:24:43;16.52;;;11.80;;
68803;SDS011;55787;52.678;13.314;2022-08-18T08:30:15;17.40;;;12.40;;
68803;SDS011;55787;52.678;13.314;2022-08-18T08:35:52;16.65;;;11.88;;
68803;SDS011;55787;52.678;13.314;2022-08-18T08:38:30;17.10;;;12.00;;
68803;SDS011;55787;52.678;13.314;2022-08-18T08:41:21;17.27;;;11.80;;
68803;SDS011;55787;52.678;13.314;2022-08-18T08:44:04;14.93;;;11.65;;
68803;SDS011;55787;52.678;13.314;2022-08-18T08:47:19;19.13;;;12.20;;
68803;SDS011;55787;52.678;13.314;2022-08-18T08:52:27;16.25;;;11.73;;
68803;SDS011;55787;52.678;13.314;2022-08-18T08:55:02;16.92;;;11.63;;
68803;SDS011;55787;52.678;13.314;2022-08-18T08:57:36;17.88;;;12.77;;
68803;SDS011;55787;52.678;13.314;2022-08-18T09:00:08;16.08;;;12.32;;
68803;SDS011;55787;52.678;13.314;2022-08-18T09:05:29;15.60;;;12.02;;
68803;SDS011;55787;52.678;13.314;2022-08-18T09:08:12;18.23;;;12.27;;
68803;SDS011;55787;52.678;13.314;2022-08-18T09:10:56;16.08;;;12.63;;
68803;SDS011;55787;52.678;13.314;2022-08-18T09:13:48;15.68;;;12.15;;
68803;SDS011;55787;52.678;13.314;2022-08-18T09:24:44;18.55;;;13.02;;
68803;SDS011;55787;52.678;13.314;2022-08-18T09:29:52;17.73;;;13.32;;
68803;SDS011;55787;52.678;13.314;2022-08-18T09:37:50;16.73;;;13.63;;
68803;SDS011;55787;52.678;13.314;2022-08-18T09:40:49;15.13;;;12.15;;
68803;SDS011;55787;52.678;13.314;2022-08-18T09:46:48;16.33;;;12.98;;
68803;SDS011;55787;52.678;13.314;2022-08-18T09:50:30;18.77;;;13.32;;
68803;SDS011;55787;52.678;13.314;2022-08-18T09:57:28;16.73;;;12.57;;
68803;SDS011;55787;52.678;13.314;2022-08-18T10:07:44;17.33;;;13.48;;
68803;SDS011;55787;52.678;13.314;2022-08-18T10:10:25;18.08;;;12.77;;
68803;SDS011;55787;52.678;13.314;2022-08-18T10:13:24;16.77;;;13.10;;
68803;SDS011;55787;52.678;13.314;2022-08-18T10:21:27;17.15;;;13.07;;
68803;SDS011;55787;52.678;13.314;2022-08-18T10:24:18;15.70;;;13.43;;
68803;SDS011;55787;52.678;13.314;2022-08-18T10:27:03;14.40;;;12.00;;
68803;SDS011;55787;52.678;13.314;2022-08-18T10:29:42;16.58;;;12.60;;
68803;SDS011;55787;52.678;13.314;2022-08-18T10:34:40;15.52;;;12.50;;
68803;SDS011;55787;52.678;13.314;2022-08-18T10:37:18;14.32;;;12.07;;
68803;SDS011;55787;52.678;13.314;2022-08-18T10:39:52;14.32;;;11.95;;
68803;SDS011;55787;52.678;13.314;2022-08-18T10:42:24;15.05;;;12.43;;
68803;SDS011;55787;52.678;13.314;2022-08-18T10:47:32;15.43;;;12.15;;
68803;SDS011;55787;52.678;13.314;2022-08-18T10:50:00;16.88;;;13.20;;
68803;SDS011;55787;52.678;13.314;2022-08-18T11:01:00;14.80;;;12.85;;
68803;SDS011;55787;52.678;13.314;2022-08-18T11:06:47;15.75;;;12.18;;
68803;SDS011;55787;52.678;13.314;2022-08-18T11:09:24;16.55;;;12.07;;
68803;SDS011;55787;52.678;13.314;2022-08-18T11:11:54;15.13;;;12.25;;
68803;SDS011;55787;52.678;13.314;2022-08-18T11:14:45;15.43;;;13.10;;
68803;SDS011;55787;52.678;13.314;2022-08-18T11:20:08;15.70;;;14.02;;
68803;SDS011;55787;52.678;13.314;2022-08-18T11:22:38;15.77;;;14.02;;
68803;SDS011;55787;52.678;13.314;2022-08-18T11:25:25;14.77;;;12.75;;
68803;SDS011;55787;52.678;13.314;2022-08-18T11:27:54;18.17;;;13.77;;
68803;SDS011;55787;52.678;13.314;2022-08-18T11:30:22;15.13;;;12.85;;
68803;SDS011;55787;52.678;13.314;2022-08-18T11:32:56;16.27;;;13.00;;
68803;SDS011;55787;52.678;13.314;2022-08-18T11:35:31;15.27;;;12.13;;
68803;SDS011;55787;52.678;13.314;2022-08-18T11:38:10;13.77;;;12.32;;
68803;SDS011;55787;52.678;13.314;2022-08-18T11:40:49;18.17;;;13.10;;
68803;SDS011;55787;52.678;13.314;2022-08-18T11:43:36;13.45;;;11.75;;
68803;SDS011;55787;52.678;13.314;2022-08-18T11:46:16;13.30;;;11.82;;
68803;SDS011;55787;52.678;13.314;2022-08-18T11:48:54;15.60;;;12.68;;
68803;SDS011;55787;52.678;13.314;2022-08-18T11:56:36;13.63;;;11.75;;
68803;SDS011;55787;52.678;13.314;2022-08-18T11:59:28;14.75;;;11.40;;
68803;SDS011;55787;52.678;13.314;2022-08-18T12:02:18;13.52;;;12.13;;
68803;SDS011;55787;52.678;13.314;2022-08-18T12:04:50;13.20;;;11.70;;
68803;SDS011;55787;52.678;13.314;2022-08-18T12:07:30;14.50;;;11.70;;
68803;SDS011;55787;52.678;13.314;2022-08-18T12:10:20;12.98;;;11.68;;
68803;SDS011;55787;52.678;13.314;2022-08-18T12:12:53;16.25;;;11.93;;
68803;SDS011;55787;52.678;13.314;2022-08-18T12:15:26;12.75;;;11.45;;
68803;SDS011;55787;52.678;13.314;2022-08-18T12:18:11;14.07;;;10.80;;
68803;SDS011;55787;52.678;13.314;2022-08-18T12:20:58;12.65;;;11.13;;
68803;SDS011;55787;52.678;13.314;2022-08-18T12:23:28;13.52;;;11.10;;
68803;SDS011;55787;52.678;13.314;2022-08-18T12:26:09;12.77;;;10.57;;
68803;SDS011;55787;52.678;13.314;2022-08-18T12:28:56;11.77;;;9.82;;
68803;SDS011;55787;52.678;13.314;2022-08-18T12:31:43;11.43;;;10.17;;
68803;SDS011;55787;52.678;13.314;2022-08-18T12:34:15;13.65;;;9.63;;
68803;SDS011;55787;52.678;13.314;2022-08-18T12:36:52;12.82;;;9.82;;
68803;SDS011;55787;52.678;13.314;2022-08-18T12:39:20;11.05;;;8.90;;
68803;SDS011;55787;52.678;13.314;2022-08-18T12:41:49;10.40;;;8.80;;
68803;SDS011;55787;52.678;13.314;2022-08-18T12:44:17;13.18;;;8.43;;
68803;SDS011;55787;52.678;13.314;2022-08-18T12:46:45;11.55;;;8.68;;
68803;SDS011;55787;52.678;13.314;2022-08-18T12:49:15;12.13;;;8.75;;
68803;SDS011;55787;52.678;13.314;2022-08-18T12:51:44;10.60;;;8.20;;
68803;SDS011;55787;52.678;13.314;2022-08-18T12:54:16;11.63;;;8.68;;
68803;SDS011;55787;52.678;13.314;2022-08-18T12:56:45;11.93;;;8.57;;
68803;SDS011;55787;52.678;13.314;2022-08-18T12:59:14;11.70;;;8.32;;
68803;SDS011;55787;52.678;13.314;2022-08-18T13:01:42;12.02;;;8.27;;
68803;SDS011;55787;52.678;13.314;2022-08-18T13:04:09;10.80;;;8.00;;
68803;SDS011;55787;52.678;13.314;2022-08-18T13:06:43;9.52;;;7.18;;
68803;SDS011;55787;52.678;13.314;2022-08-18T13:09:26;10.15;;;7.50;;
68803;SDS011;55787;52.678;13.314;2022-08-18T13:12:17;10.70;;;7.38;;
68803;SDS011;55787;52.678;13.314;2022-08-18T13:14:44;11.00;;;7.40;;
68803;SDS011;55787;52.678;13.314;2022-08-18T13:17:12;10.45;;;7.82;;
68803;SDS011;55787;52.678;13.314;2022-08-18T13:19:59;12.48;;;8.27;;
68803;SDS011;55787;52.678;13.314;2022-08-18T13:22:27;10.50;;;8.07;;
68803;SDS011;55787;52.678;13.314;2022-08-18T13:24:58;10.73;;;8.10;;
68803;SDS011;55787;52.678;13.314;2022-08-18T13:27:30;9.80;;;7.57;;
68803;SDS011;55787;52.678;13.314;2022-08-18T13:30:03;11.02;;;6.75;;
68803;SDS011;55787;52.678;13.314;2022-08-18T13:32:50;12.07;;;7.03;;
68803;SDS011;55787;52.678;13.314;2022-08-18T13:35:27;9.40;;;6.55;;
68803;SDS011;55787;52.678;13.314;2022-08-18T13:38:00;10.10;;;6.65;;
68803;SDS011;55787;52.678;13.314;2022-08-18T13:40:42;10.48;;;6.75;;
68803;SDS011;55787;52.678;13.314;2022-08-18T13:43:11;12.63;;;7.15;;
68803;SDS011;55787;52.678;13.314;2022-08-18T13:45:39;10.32;;;6.78;;
68803;SDS011;55787;52.678;13.314;2022-08-18T13:48:08;10.43;;;6.93;;
68803;SDS011;55787;52.678;13.314;2022-08-18T13:50:35;13.73;;;6.82;;
68803;SDS011;55787;52.678;13.314;2022-08-18T13:53:11;11.27;;;6.80;;
68803;SDS011;55787;52.678;13.314;2022-08-18T13:55:40;13.05;;;6.70;;
68803;SDS011;55787;52.678;13.314;2022-08-18T13:58:06;11.45;;;6.40;;
68803;SDS011;55787;52.678;13.314;2022-08-18T14:00:46;10.85;;;6.88;;
68803;SDS011;55787;52.678;13.314;2022-08-18T14:03:17;13.23;;;8.05;;
68803;SDS011;55787;52.678;13.314;2022-08-18T14:06:08;10.80;;;7.50;;
68803;SDS011;55787;52.678;13.314;2022-08-18T14:08:38;11.15;;;7.93;;
68803;SDS011;55787;52.678;13.314;2022-08-18T14:11:05;12.85;;;8.38;;
68803;SDS011;55787;52.678;13.314;2022-08-18T14:13:32;13.00;;;9.23;;
68803;SDS011;55787;52.678;13.314;2022-08-18T14:16:09;12.40;;;9.48;;
68803;SDS011;55787;52.678;13.314;2022-08-18T14:18:44;13.20;;;9.77;;
68803;SDS011;55787;52.678;13.314;2022-08-18T14:21:35;12.50;;;8.57;;
68803;SDS011;55787;52.678;13.314;2022-08-18T14:24:28;14.27;;;8.32;;
68803;SDS011;55787;52.678;13.314;2022-08-18T14:27:18;13.80;;;9.02;;
68803;SDS011;55787;52.678;13.314;2022-08-18T14:29:51;13.30;;;9.40;;
68803;SDS011;55787;52.678;13.314;2022-08-18T14:32:20;13.18;;;8.90;;
68803;SDS011;55787;52.678;13.314;2022-08-18T14:34:55;15.38;;;9.02;;
68803;SDS011;55787;52.678;13.314;2022-08-18T14:37:26;12.55;;;8.90;;
68803;SDS011;55787;52.678;13.314;2022-08-18T14:39:54;13.55;;;8.95;;
68803;SDS011;55787;52.678;13.314;2022-08-18T14:42:21;11.90;;;8.90;;
68803;SDS011;55787;52.678;13.314;2022-08-18T14:45:07;11.73;;;8.00;;
68803;SDS011;55787;52.678;13.314;2022-08-18T14:47:57;11.18;;;7.72;;
68803;SDS011;55787;52.678;13.314;2022-08-18T14:50:24;10.70;;;7.07;;
68803;SDS011;55787;52.678;13.314;2022-08-18T14:52:51;10.43;;;6.60;;
68803;SDS011;55787;52.678;13.314;2022-08-18T14:55:18;10.00;;;6.50;;
68803;SDS011;55787;52.678;13.314;2022-08-18T14:57:45;10.45;;;6.20;;
68803;SDS011;55787;52.678;13.314;2022-08-18T15:00:14;9.73;;;5.63;;
68803;SDS011;55787;52.678;13.314;2022-08-18T15:02:47;8.90;;;5.40;;
68803;SDS011;55787;52.678;13.314;2022-08-18T15:05:14;10.90;;;6.05;;
68803;SDS011;55787;52.678;13.314;2022-08-18T15:07:49;9.15;;;5.50;;
68803;SDS011;55787;52.678;13.314;2022-08-18T15:10:15;9.32;;;5.65;;
68803;SDS011;55787;52.678;13.314;2022-08-18T15:12:45;9.57;;;5.50;;
68803;SDS011;55787;52.678;13.314;2022-08-18T15:15:12;13.02;;;6.28;;
68803;SDS011;55787;52.678;13.314;2022-08-18T15:17:43;8.88;;;5.35;;
68803;SDS011;55787;52.678;13.314;2022-08-18T15:20:15;9.10;;;5.22;;
68803;SDS011;55787;52.678;13.314;2022-08-18T15:22:43;10.65;;;5.70;;
68803;SDS011;55787;52.678;13.314;2022-08-18T15:25:29;9.10;;;5.70;;
68803;SDS011;55787;52.678;13.314;2022-08-18T15:30:48;8.95;;;5.28;;
68803;SDS011;55787;52.678;13.314;2022-08-18T15:33:17;8.98;;;5.15;;
68803;SDS011;55787;52.678;13.314;2022-08-18T15:35:48;8.98;;;5.70;;
68803;SDS011;55787;52.678;13.314;2022-08-18T15:38:19;9.30;;;5.45;;
68803;SDS011;55787;52.678;13.314;2022-08-18T15:40:53;8.63;;;5.32;;
68803;SDS011;55787;52.678;13.314;2022-08-18T15:43:24;10.57;;;5.90;;
68803;SDS011;55787;52.678;13.314;2022-08-18T15:45:57;10.40;;;5.82;;
68803;SDS011;55787;52.678;13.314;2022-08-18T15:48:25;8.48;;;5.70;;
68803;SDS011;55787;52.678;13.314;2022-08-18T15:50:54;9.10;;;5.40;;
68803;SDS011;55787;52.678;13.314;2022-08-18T15:53:22;9.18;;;5.38;;
68803;SDS011;55787;52.678;13.314;2022-08-18T15:55:55;9.07;;;5.22;;
68803;SDS011;55787;52.678;13.314;2022-08-18T15:58:22;9.85;;;5.40;;
68803;SDS011;55787;52.678;13.314;2022-08-18T16:00:53;10.43;;;5.72;;
68803;SDS011;55787;52.678;13.314;2022-08-18T16:03:20;8.38;;;5.22;;
68803;SDS011;55787;52.678;13.314;2022-08-18T16:05:50;8.18;;;5.03;;
68803;SDS011;55787;52.678;13.314;2022-08-18T16:08:20;10.85;;;5.40;;
68803;SDS011;55787;52.678;13.314;2022-08-18T16:10:47;8.48;;;5.13;;
68803;SDS011;55787;52.678;13.314;2022-08-18T16:13:14;10.48;;;6.30;;
68803;SDS011;55787;52.678;13.314;2022-08-18T16:15:42;9.25;;;5.68;;
68803;SDS011;55787;52.678;13.314;2022-08-18T16:18:12;8.85;;;5.57;;
68803;SDS011;55787;52.678;13.314;2022-08-18T16:20:39;9.20;;;5.78;;
68803;SDS011;55787;52.678;13.314;2022-08-18T16:23:07;9.25;;;5.75;;
68803;SDS011;55787;52.678;13.314;2022-08-18T16:25:36;9.88;;;5.95;;
68803;SDS011;55787;52.678;13.314;2022-08-18T16:28:03;9.65;;;5.65;;
68803;SDS011;55787;52.678;13.314;2022-08-18T16:30:30;9.52;;;5.90;;
68803;SDS011;55787;52.678;13.314;2022-08-18T16:32:59;10.40;;;6.13;;
68803;SDS011;55787;52.678;13.314;2022-08-18T16:35:28;10.27;;;6.65;;
68803;SDS011;55787;52.678;13.314;2022-08-18T16:37:55;10.20;;;6.50;;
68803;SDS011;55787;52.678;13.314;2022-08-18T16:40:29;10.32;;;6.80;;
68803;SDS011;55787;52.678;13.314;2022-08-18T16:42:56;12.20;;;7.32;;
68803;SDS011;55787;52.678;13.314;2022-08-18T16:45:24;11.57;;;7.50;;
68803;SDS011;55787;52.678;13.314;2022-08-18T16:47:51;12.40;;;7.60;;
68803;SDS011;55787;52.678;13.314;2022-08-18T16:50:18;15.10;;;7.80;;
68803;SDS011;55787;52.678;13.314;2022-08-18T16:52:48;12.20;;;7.47;;
68803;SDS011;55787;52.678;13.314;2022-08-18T16:55:15;12.38;;;8.00;;
68803;SDS011;55787;52.678;13.314;2022-08-18T16:57:41;13.75;;;8.52;;